CheckWX is a tool to help pilots better visualize weather data.  It is not intended as a substitute for an official pre-flight weather briefing.

23:45:31 UTC

KHUT TAF
Hutchinson Regional Airport
Hutchinson, Kansas, USA
KHUT 241733Z 2418/2518 36015KT P6SM BKN020 FM242100 36011KT P6SM SCT050 FM250500 32007KT P6SM BKN025 FM251600 33014KT P6SM BKN015

Feb-24@
18:00 UTC

Feb-24 @ 18:00 UTC

Feb-24@
21:00 UTC

Feb-24 @ 21:00 UTC

KHUT 241733Z 2418/2518 36015KT P6SM BKN020

Expired

Wind
  • 360° at 15 KTS
Cloud Levels
  • Broken at 2,000' AGL

Feb-24@
21:00 UTC

Feb-24 @ 21:00 UTC

Feb-25@
05:00 UTC

Feb-25 @ 05:00 UTC

FM242100 36011KT P6SM SCT050

From

From Standard forecast or significant change

Wind
  • 360° at 11 KTS
Cloud Levels
  • Scattered at 5,000' AGL

Feb-25@
05:00 UTC

Feb-25 @ 05:00 UTC

Feb-25@
16:00 UTC

Feb-25 @ 16:00 UTC

FM250500 32007KT P6SM BKN025

From

From Standard forecast or significant change

Wind
  • 320° at 7 KTS
Cloud Levels
  • Broken at 2,500' AGL

Feb-25@
16:00 UTC

Feb-25 @ 16:00 UTC

Feb-25@
18:00 UTC

Feb-25 @ 18:00 UTC

FM251600 33014KT P6SM BKN015

From

From Standard forecast or significant change

Wind
  • 330° at 14 KTS
Cloud Levels
  • Broken at 1,500' AGL